sensor_id;sensor_type;location;lat;lon;timestamp;P1;durP1;ratioP1;P2;durP2;ratioP2
8293;SDS011;4185;41.506;24.938;2023-07-30T00:01:29;3.73;;;3.43;;
8293;SDS011;4185;41.506;24.938;2023-07-30T00:03:55;4.27;;;3.30;;
8293;SDS011;4185;41.506;24.938;2023-07-30T00:06:22;3.60;;;3.30;;
8293;SDS011;4185;41.506;24.938;2023-07-30T00:08:50;3.83;;;3.00;;
8293;SDS011;4185;41.506;24.938;2023-07-30T00:11:17;3.57;;;3.27;;
8293;SDS011;4185;41.506;24.938;2023-07-30T00:13:44;3.63;;;3.13;;
8293;SDS011;4185;41.506;24.938;2023-07-30T00:16:10;3.47;;;3.10;;
8293;SDS011;4185;41.506;24.938;2023-07-30T00:18:37;3.17;;;2.80;;
8293;SDS011;4185;41.506;24.938;2023-07-30T00:21:04;4.03;;;2.73;;
8293;SDS011;4185;41.506;24.938;2023-07-30T00:23:31;3.33;;;3.00;;
8293;SDS011;4185;41.506;24.938;2023-07-30T00:25:59;3.50;;;3.20;;
8293;SDS011;4185;41.506;24.938;2023-07-30T00:28:26;3.57;;;3.13;;
8293;SDS011;4185;41.506;24.938;2023-07-30T00:30:52;3.50;;;3.20;;
8293;SDS011;4185;41.506;24.938;2023-07-30T00:33:19;3.93;;;3.53;;
8293;SDS011;4185;41.506;24.938;2023-07-30T00:35:46;3.47;;;3.03;;
8293;SDS011;4185;41.506;24.938;2023-07-30T00:38:12;3.40;;;3.10;;
8293;SDS011;4185;41.506;24.938;2023-07-30T00:40:41;3.83;;;3.40;;
8293;SDS011;4185;41.506;24.938;2023-07-30T00:43:09;3.80;;;3.50;;
8293;SDS011;4185;41.506;24.938;2023-07-30T00:45:36;4.20;;;3.53;;
8293;SDS011;4185;41.506;24.938;2023-07-30T00:48:04;4.03;;;3.67;;
8293;SDS011;4185;41.506;24.938;2023-07-30T00:50:31;3.80;;;3.40;;
8293;SDS011;4185;41.506;24.938;2023-07-30T00:52:59;4.10;;;3.53;;
8293;SDS011;4185;41.506;24.938;2023-07-30T00:55:26;3.83;;;3.00;;
8293;SDS011;4185;41.506;24.938;2023-07-30T00:57:52;3.80;;;3.50;;
8293;SDS011;4185;41.506;24.938;2023-07-30T01:00:21;5.30;;;3.37;;
8293;SDS011;4185;41.506;24.938;2023-07-30T01:02:49;3.30;;;3.10;;
8293;SDS011;4185;41.506;24.938;2023-07-30T01:05:17;3.40;;;3.10;;
8293;SDS011;4185;41.506;24.938;2023-07-30T01:07:44;3.73;;;3.27;;
8293;SDS011;4185;41.506;24.938;2023-07-30T01:10:11;5.90;;;2.87;;
8293;SDS011;4185;41.506;24.938;2023-07-30T01:12:38;3.83;;;3.17;;
8293;SDS011;4185;41.506;24.938;2023-07-30T01:15:07;3.70;;;3.30;;
8293;SDS011;4185;41.506;24.938;2023-07-30T01:17:37;3.43;;;3.13;;
8293;SDS011;4185;41.506;24.938;2023-07-30T01:20:04;3.60;;;3.20;;
8293;SDS011;4185;41.506;24.938;2023-07-30T01:22:33;4.13;;;3.27;;
8293;SDS011;4185;41.506;24.938;2023-07-30T01:25:00;3.37;;;3.07;;
8293;SDS011;4185;41.506;24.938;2023-07-30T01:27:28;3.30;;;2.97;;
8293;SDS011;4185;41.506;24.938;2023-07-30T01:29:57;3.70;;;3.40;;
8293;SDS011;4185;41.506;24.938;2023-07-30T01:32:30;3.07;;;2.77;;
8293;SDS011;4185;41.506;24.938;2023-07-30T01:34:58;3.57;;;3.10;;
8293;SDS011;4185;41.506;24.938;2023-07-30T01:37:27;3.70;;;3.40;;
8293;SDS011;4185;41.506;24.938;2023-07-30T01:39:57;4.13;;;3.23;;
8293;SDS011;4185;41.506;24.938;2023-07-30T01:42:27;3.57;;;3.27;;
8293;SDS011;4185;41.506;24.938;2023-07-30T01:44:54;3.60;;;3.30;;
8293;SDS011;4185;41.506;24.938;2023-07-30T01:47:21;3.97;;;3.20;;
8293;SDS011;4185;41.506;24.938;2023-07-30T01:49:48;4.00;;;3.50;;
8293;SDS011;4185;41.506;24.938;2023-07-30T01:52:15;4.50;;;3.60;;
8293;SDS011;4185;41.506;24.938;2023-07-30T01:54:41;4.30;;;3.90;;
8293;SDS011;4185;41.506;24.938;2023-07-30T01:57:10;3.97;;;3.60;;
8293;SDS011;4185;41.506;24.938;2023-07-30T01:59:38;4.13;;;3.77;;
8293;SDS011;4185;41.506;24.938;2023-07-30T02:02:04;4.07;;;3.67;;
8293;SDS011;4185;41.506;24.938;2023-07-30T02:04:32;5.00;;;4.33;;
8293;SDS011;4185;41.506;24.938;2023-07-30T02:06:58;4.17;;;3.77;;
8293;SDS011;4185;41.506;24.938;2023-07-30T02:09:25;3.50;;;3.20;;
8293;SDS011;4185;41.506;24.938;2023-07-30T02:11:52;3.93;;;3.53;;
8293;SDS011;4185;41.506;24.938;2023-07-30T02:14:20;5.33;;;3.63;;
8293;SDS011;4185;41.506;24.938;2023-07-30T02:16:47;3.60;;;3.30;;
8293;SDS011;4185;41.506;24.938;2023-07-30T02:19:14;4.07;;;3.67;;
8293;SDS011;4185;41.506;24.938;2023-07-30T02:21:40;4.37;;;3.40;;
8293;SDS011;4185;41.506;24.938;2023-07-30T02:24:08;3.80;;;3.50;;
8293;SDS011;4185;41.506;24.938;2023-07-30T02:26:36;4.10;;;3.70;;
8293;SDS011;4185;41.506;24.938;2023-07-30T02:29:03;3.80;;;3.30;;
8293;SDS011;4185;41.506;24.938;2023-07-30T02:31:32;4.33;;;3.60;;
8293;SDS011;4185;41.506;24.938;2023-07-30T02:33:58;3.87;;;3.47;;
8293;SDS011;4185;41.506;24.938;2023-07-30T02:36:25;3.50;;;3.20;;
8293;SDS011;4185;41.506;24.938;2023-07-30T02:38:52;4.00;;;3.60;;
8293;SDS011;4185;41.506;24.938;2023-07-30T02:41:19;3.50;;;3.20;;
8293;SDS011;4185;41.506;24.938;2023-07-30T02:43:45;4.17;;;3.77;;
8293;SDS011;4185;41.506;24.938;2023-07-30T02:46:12;4.60;;;3.57;;
8293;SDS011;4185;41.506;24.938;2023-07-30T02:48:40;4.33;;;3.93;;
8293;SDS011;4185;41.506;24.938;2023-07-30T02:51:07;4.37;;;3.93;;
8293;SDS011;4185;41.506;24.938;2023-07-30T02:53:34;4.27;;;3.87;;
8293;SDS011;4185;41.506;24.938;2023-07-30T02:56:00;3.80;;;3.40;;
8293;SDS011;4185;41.506;24.938;2023-07-30T02:58:27;4.30;;;3.90;;
8293;SDS011;4185;41.506;24.938;2023-07-30T03:00:54;3.77;;;3.43;;
8293;SDS011;4185;41.506;24.938;2023-07-30T03:03:21;4.30;;;3.90;;
8293;SDS011;4185;41.506;24.938;2023-07-30T03:05:49;4.10;;;3.70;;
8293;SDS011;4185;41.506;24.938;2023-07-30T03:08:15;4.60;;;3.60;;
8293;SDS011;4185;41.506;24.938;2023-07-30T03:10:42;3.90;;;3.60;;
8293;SDS011;4185;41.506;24.938;2023-07-30T03:13:09;4.10;;;3.70;;
8293;SDS011;4185;41.506;24.938;2023-07-30T03:15:36;3.70;;;3.40;;
8293;SDS011;4185;41.506;24.938;2023-07-30T03:18:02;4.20;;;3.80;;
8293;SDS011;4185;41.506;24.938;2023-07-30T03:20:29;3.60;;;3.30;;
8293;SDS011;4185;41.506;24.938;2023-07-30T03:22:57;4.10;;;3.70;;
8293;SDS011;4185;41.506;24.938;2023-07-30T03:25:24;4.13;;;3.70;;
8293;SDS011;4185;41.506;24.938;2023-07-30T03:27:51;4.93;;;3.80;;
8293;SDS011;4185;41.506;24.938;2023-07-30T03:30:17;3.97;;;3.53;;
8293;SDS011;4185;41.506;24.938;2023-07-30T03:32:44;4.57;;;3.87;;
8293;SDS011;4185;41.506;24.938;2023-07-30T03:35:11;3.87;;;3.47;;
8293;SDS011;4185;41.506;24.938;2023-07-30T03:37:38;4.27;;;3.87;;
8293;SDS011;4185;41.506;24.938;2023-07-30T03:40:07;4.33;;;3.93;;
8293;SDS011;4185;41.506;24.938;2023-07-30T03:42:34;5.93;;;4.47;;
8293;SDS011;4185;41.506;24.938;2023-07-30T03:45:01;6.50;;;3.90;;
8293;SDS011;4185;41.506;24.938;2023-07-30T03:47:28;4.10;;;3.70;;
8293;SDS011;4185;41.506;24.938;2023-07-30T03:49:55;4.00;;;3.60;;
8293;SDS011;4185;41.506;24.938;2023-07-30T03:52:21;4.20;;;3.80;;
8293;SDS011;4185;41.506;24.938;2023-07-30T03:54:48;4.23;;;3.83;;
8293;SDS011;4185;41.506;24.938;2023-07-30T03:57:16;4.10;;;3.70;;
8293;SDS011;4185;41.506;24.938;2023-07-30T03:59:43;5.17;;;3.60;;
8293;SDS011;4185;41.506;24.938;2023-07-30T04:02:10;3.77;;;3.47;;
8293;SDS011;4185;41.506;24.938;2023-07-30T04:04:40;4.00;;;3.60;;
8293;SDS011;4185;41.506;24.938;2023-07-30T04:07:08;4.60;;;4.20;;
8293;SDS011;4185;41.506;24.938;2023-07-30T04:09:35;6.07;;;4.70;;
8293;SDS011;4185;41.506;24.938;2023-07-30T04:12:02;6.20;;;5.17;;
8293;SDS011;4185;41.506;24.938;2023-07-30T04:14:31;7.93;;;5.30;;
8293;SDS011;4185;41.506;24.938;2023-07-30T04:16:57;6.07;;;5.47;;
8293;SDS011;4185;41.506;24.938;2023-07-30T04:19:24;6.20;;;5.47;;
8293;SDS011;4185;41.506;24.938;2023-07-30T04:21:51;5.47;;;4.70;;
8293;SDS011;4185;41.506;24.938;2023-07-30T04:24:18;4.77;;;4.30;;
8293;SDS011;4185;41.506;24.938;2023-07-30T04:26:44;4.97;;;4.47;;
8293;SDS011;4185;41.506;24.938;2023-07-30T04:29:11;5.83;;;4.57;;
8293;SDS011;4185;41.506;24.938;2023-07-30T04:31:40;6.33;;;4.10;;
8293;SDS011;4185;41.506;24.938;2023-07-30T04:34:07;4.73;;;4.20;;
8293;SDS011;4185;41.506;24.938;2023-07-30T04:36:34;4.90;;;4.40;;
8293;SDS011;4185;41.506;24.938;2023-07-30T04:39:00;4.43;;;4.03;;
8293;SDS011;4185;41.506;24.938;2023-07-30T04:41:27;4.47;;;4.07;;
8293;SDS011;4185;41.506;24.938;2023-07-30T04:43:54;4.67;;;4.03;;
8293;SDS011;4185;41.506;24.938;2023-07-30T04:46:21;4.23;;;3.83;;
8293;SDS011;4185;41.506;24.938;2023-07-30T04:48:49;5.53;;;4.00;;
8293;SDS011;4185;41.506;24.938;2023-07-30T04:51:15;4.20;;;3.80;;
8293;SDS011;4185;41.506;24.938;2023-07-30T04:53:42;4.40;;;3.80;;
8293;SDS011;4185;41.506;24.938;2023-07-30T04:56:09;4.30;;;3.93;;
8293;SDS011;4185;41.506;24.938;2023-07-30T04:58:36;5.30;;;4.43;;
8293;SDS011;4185;41.506;24.938;2023-07-30T05:01:02;4.93;;;3.70;;
8293;SDS011;4185;41.506;24.938;2023-07-30T05:03:29;4.20;;;3.80;;
8293;SDS011;4185;41.506;24.938;2023-07-30T05:05:57;6.43;;;4.77;;
8293;SDS011;4185;41.506;24.938;2023-07-30T05:08:24;5.83;;;4.27;;
8293;SDS011;4185;41.506;24.938;2023-07-30T05:10:51;5.13;;;4.43;;
8293;SDS011;4185;41.506;24.938;2023-07-30T05:13:17;4.47;;;4.07;;
8293;SDS011;4185;41.506;24.938;2023-07-30T05:15:44;5.43;;;3.93;;
8293;SDS011;4185;41.506;24.938;2023-07-30T05:18:11;4.80;;;4.40;;
8293;SDS011;4185;41.506;24.938;2023-07-30T05:20:38;5.77;;;4.63;;
8293;SDS011;4185;41.506;24.938;2023-07-30T05:23:06;4.70;;;4.30;;
8293;SDS011;4185;41.506;24.938;2023-07-30T05:25:33;6.10;;;4.60;;
8293;SDS011;4185;41.506;24.938;2023-07-30T05:28:00;4.93;;;4.43;;
8293;SDS011;4185;41.506;24.938;2023-07-30T05:30:27;5.63;;;4.70;;
8293;SDS011;4185;41.506;24.938;2023-07-30T05:32:54;6.00;;;5.40;;
8293;SDS011;4185;41.506;24.938;2023-07-30T05:35:21;5.37;;;4.83;;
8293;SDS011;4185;41.506;24.938;2023-07-30T05:37:48;7.73;;;5.30;;
8293;SDS011;4185;41.506;24.938;2023-07-30T05:40:17;5.90;;;5.30;;
8293;SDS011;4185;41.506;24.938;2023-07-30T05:42:44;5.07;;;4.57;;
8293;SDS011;4185;41.506;24.938;2023-07-30T05:45:11;7.40;;;4.33;;
8293;SDS011;4185;41.506;24.938;2023-07-30T05:47:38;5.50;;;4.57;;
8293;SDS011;4185;41.506;24.938;2023-07-30T05:50:05;12.27;;;5.00;;
8293;SDS011;4185;41.506;24.938;2023-07-30T05:52:33;5.33;;;4.57;;
8293;SDS011;4185;41.506;24.938;2023-07-30T05:55:00;6.40;;;4.40;;
8293;SDS011;4185;41.506;24.938;2023-07-30T05:57:28;6.53;;;4.47;;
8293;SDS011;4185;41.506;24.938;2023-07-30T05:59:56;5.63;;;4.57;;
8293;SDS011;4185;41.506;24.938;2023-07-30T06:02:22;5.53;;;4.97;;
8293;SDS011;4185;41.506;24.938;2023-07-30T06:04:49;5.53;;;4.93;;
8293;SDS011;4185;41.506;24.938;2023-07-30T06:07:16;5.23;;;4.73;;
8293;SDS011;4185;41.506;24.938;2023-07-30T06:09:43;5.07;;;4.27;;
8293;SDS011;4185;41.506;24.938;2023-07-30T06:12:10;10.43;;;5.10;;
8293;SDS011;4185;41.506;24.938;2023-07-30T06:14:38;5.40;;;4.70;;
8293;SDS011;4185;41.506;24.938;2023-07-30T06:17:05;4.97;;;4.33;;
8293;SDS011;4185;41.506;24.938;2023-07-30T06:19:32;9.30;;;4.70;;
8293;SDS011;4185;41.506;24.938;2023-07-30T06:21:58;9.50;;;4.60;;
8293;SDS011;4185;41.506;24.938;2023-07-30T06:24:25;8.47;;;4.97;;
8293;SDS011;4185;41.506;24.938;2023-07-30T06:26:52;5.53;;;4.53;;
8293;SDS011;4185;41.506;24.938;2023-07-30T06:29:19;4.73;;;4.23;;
8293;SDS011;4185;41.506;24.938;2023-07-30T06:31:47;4.63;;;4.23;;
8293;SDS011;4185;41.506;24.938;2023-07-30T06:34:14;4.97;;;4.47;;
8293;SDS011;4185;41.506;24.938;2023-07-30T06:36:40;7.00;;;3.77;;
8293;SDS011;4185;41.506;24.938;2023-07-30T06:39:07;4.93;;;4.00;;
8293;SDS011;4185;41.506;24.938;2023-07-30T06:41:34;4.13;;;3.80;;
8293;SDS011;4185;41.506;24.938;2023-07-30T06:44:01;4.80;;;4.10;;
8293;SDS011;4185;41.506;24.938;2023-07-30T06:46:27;9.20;;;5.97;;
8293;SDS011;4185;41.506;24.938;2023-07-30T06:48:56;5.93;;;4.33;;
8293;SDS011;4185;41.506;24.938;2023-07-30T06:51:24;4.83;;;3.90;;
8293;SDS011;4185;41.506;24.938;2023-07-30T06:53:51;4.77;;;4.27;;
8293;SDS011;4185;41.506;24.938;2023-07-30T06:56:18;4.37;;;3.97;;
8293;SDS011;4185;41.506;24.938;2023-07-30T06:58:44;3.77;;;3.47;;
8293;SDS011;4185;41.506;24.938;2023-07-30T07:01:11;4.07;;;3.73;;
8293;SDS011;4185;41.506;24.938;2023-07-30T07:03:38;3.97;;;3.43;;
8293;SDS011;4185;41.506;24.938;2023-07-30T07:06:06;4.10;;;3.43;;
8293;SDS011;4185;41.506;24.938;2023-07-30T07:08:33;4.70;;;4.10;;
8293;SDS011;4185;41.506;24.938;2023-07-30T07:11:00;4.13;;;3.73;;
8293;SDS011;4185;41.506;24.938;2023-07-30T07:13:26;4.07;;;3.67;;
8293;SDS011;4185;41.506;24.938;2023-07-30T07:15:53;4.30;;;3.60;;
8293;SDS011;4185;41.506;24.938;2023-07-30T07:18:20;4.37;;;3.97;;
8293;SDS011;4185;41.506;24.938;2023-07-30T07:20:46;5.33;;;3.83;;
8293;SDS011;4185;41.506;24.938;2023-07-30T07:23:15;4.90;;;4.50;;
8293;SDS011;4185;41.506;24.938;2023-07-30T07:25:41;5.00;;;3.80;;
8293;SDS011;4185;41.506;24.938;2023-07-30T07:28:10;4.63;;;3.80;;
8293;SDS011;4185;41.506;24.938;2023-07-30T07:30:36;5.43;;;3.80;;
8293;SDS011;4185;41.506;24.938;2023-07-30T07:33:03;4.00;;;3.63;;
8293;SDS011;4185;41.506;24.938;2023-07-30T07:35:30;5.03;;;4.03;;
8293;SDS011;4185;41.506;24.938;2023-07-30T07:37:57;4.93;;;3.80;;
8293;SDS011;4185;41.506;24.938;2023-07-30T07:40:26;7.20;;;4.73;;
8293;SDS011;4185;41.506;24.938;2023-07-30T07:42:52;5.10;;;3.73;;
8293;SDS011;4185;41.506;24.938;2023-07-30T07:45:20;3.93;;;3.63;;
8293;SDS011;4185;41.506;24.938;2023-07-30T07:47:47;3.87;;;3.57;;
8293;SDS011;4185;41.506;24.938;2023-07-30T07:50:14;4.97;;;3.43;;
8293;SDS011;4185;41.506;24.938;2023-07-30T07:52:41;5.30;;;3.23;;
8293;SDS011;4185;41.506;24.938;2023-07-30T07:55:08;4.30;;;3.90;;
8293;SDS011;4185;41.506;24.938;2023-07-30T07:57:36;3.90;;;3.47;;
8293;SDS011;4185;41.506;24.938;2023-07-30T08:00:03;5.60;;;4.20;;
8293;SDS011;4185;41.506;24.938;2023-07-30T08:02:31;4.60;;;3.53;;
8293;SDS011;4185;41.506;24.938;2023-07-30T08:04:58;3.93;;;3.60;;
8293;SDS011;4185;41.506;24.938;2023-07-30T08:07:25;4.10;;;3.70;;
8293;SDS011;4185;41.506;24.938;2023-07-30T08:09:51;4.17;;;3.67;;
8293;SDS011;4185;41.506;24.938;2023-07-30T08:12:19;3.63;;;3.27;;
8293;SDS011;4185;41.506;24.938;2023-07-30T08:14:48;4.40;;;3.20;;
8293;SDS011;4185;41.506;24.938;2023-07-30T08:17:14;4.53;;;3.00;;
8293;SDS011;4185;41.506;24.938;2023-07-30T08:19:41;3.40;;;3.10;;
8293;SDS011;4185;41.506;24.938;2023-07-30T08:22:08;3.97;;;3.47;;
8293;SDS011;4185;41.506;24.938;2023-07-30T08:24:35;3.37;;;2.83;;
8293;SDS011;4185;41.506;24.938;2023-07-30T08:27:01;3.30;;;3.00;;
8293;SDS011;4185;41.506;24.938;2023-07-30T08:29:28;4.00;;;3.13;;
8293;SDS011;4185;41.506;24.938;2023-07-30T08:31:57;3.80;;;2.80;;
8293;SDS011;4185;41.506;24.938;2023-07-30T08:34:24;3.67;;;2.70;;
8293;SDS011;4185;41.506;24.938;2023-07-30T08:36:50;3.47;;;2.70;;
8293;SDS011;4185;41.506;24.938;2023-07-30T08:39:17;4.07;;;2.90;;
8293;SDS011;4185;41.506;24.938;2023-07-30T08:41:44;6.93;;;3.23;;
8293;SDS011;4185;41.506;24.938;2023-07-30T08:44:11;10.70;;;4.87;;
8293;SDS011;4185;41.506;24.938;2023-07-30T08:46:39;4.27;;;3.33;;
8293;SDS011;4185;41.506;24.938;2023-07-30T08:49:07;2.83;;;2.63;;
8293;SDS011;4185;41.506;24.938;2023-07-30T08:51:34;5.03;;;3.03;;
8293;SDS011;4185;41.506;24.938;2023-07-30T08:54:03;3.40;;;3.10;;
8293;SDS011;4185;41.506;24.938;2023-07-30T08:56:30;4.07;;;2.83;;
8293;SDS011;4185;41.506;24.938;2023-07-30T08:58:57;3.20;;;2.70;;
8293;SDS011;4185;41.506;24.938;2023-07-30T09:01:25;3.13;;;2.83;;
8293;SDS011;4185;41.506;24.938;2023-07-30T09:03:56;4.07;;;2.78;;
8293;SDS011;4185;41.506;24.938;2023-07-30T09:06:27;4.70;;;3.05;;
8293;SDS011;4185;41.506;24.938;2023-07-30T09:08:53;3.73;;;3.33;;
8293;SDS011;4185;41.506;24.938;2023-07-30T09:11:20;6.20;;;3.10;;
8293;SDS011;4185;41.506;24.938;2023-07-30T09:13:52;3.15;;;2.85;;
8293;SDS011;4185;41.506;24.938;2023-07-30T09:16:23;3.30;;;3.00;;
8293;SDS011;4185;41.506;24.938;2023-07-30T09:18:51;7.57;;;2.75;;
8293;SDS011;4185;41.506;24.938;2023-07-30T09:21:18;3.92;;;2.80;;
8293;SDS011;4185;41.506;24.938;2023-07-30T09:23:47;5.20;;;2.92;;
8293;SDS011;4185;41.506;24.938;2023-07-30T09:26:15;3.42;;;3.03;;
8293;SDS011;4185;41.506;24.938;2023-07-30T09:28:42;3.70;;;2.97;;
8293;SDS011;4185;41.506;24.938;2023-07-30T09:31:09;3.95;;;2.95;;
8293;SDS011;4185;41.506;24.938;2023-07-30T09:33:40;3.30;;;3.00;;
8293;SDS011;4185;41.506;24.938;2023-07-30T09:36:14;3.00;;;2.70;;
8293;SDS011;4185;41.506;24.938;2023-07-30T09:38:44;2.75;;;2.55;;
8293;SDS011;4185;41.506;24.938;2023-07-30T09:41:13;3.42;;;2.92;;
8293;SDS011;4185;41.506;24.938;2023-07-30T09:43:40;3.78;;;2.88;;
8293;SDS011;4185;41.506;24.938;2023-07-30T09:46:07;3.15;;;2.90;;
8293;SDS011;4185;41.506;24.938;2023-07-30T09:48:34;3.10;;;2.80;;
8293;SDS011;4185;41.506;24.938;2023-07-30T09:51:02;3.17;;;2.88;;
8293;SDS011;4185;41.506;24.938;2023-07-30T09:53:32;4.93;;;2.70;;
8293;SDS011;4185;41.506;24.938;2023-07-30T09:56:01;5.38;;;2.92;;
8293;SDS011;4185;41.506;24.938;2023-07-30T09:58:29;3.38;;;3.08;;
8293;SDS011;4185;41.506;24.938;2023-07-30T10:00:57;3.40;;;3.10;;
8293;SDS011;4185;41.506;24.938;2023-07-30T10:03:25;2.88;;;2.60;;
8293;SDS011;4185;41.506;24.938;2023-07-30T10:05:52;2.88;;;2.58;;
8293;SDS011;4185;41.506;24.938;2023-07-30T10:08:23;3.17;;;2.90;;
8293;SDS011;4185;41.506;24.938;2023-07-30T10:10:52;3.00;;;2.80;;
8293;SDS011;4185;41.506;24.938;2023-07-30T10:13:20;4.80;;;3.05;;
8293;SDS011;4185;41.506;24.938;2023-07-30T10:15:49;3.53;;;3.20;;
8293;SDS011;4185;41.506;24.938;2023-07-30T10:18:17;4.47;;;2.92;;
8293;SDS011;4185;41.506;24.938;2023-07-30T10:20:45;3.10;;;2.78;;
8293;SDS011;4185;41.506;24.938;2023-07-30T10:23:19;2.88;;;2.58;;
8293;SDS011;4185;41.506;24.938;2023-07-30T10:25:46;3.85;;;3.47;;
8293;SDS011;4185;41.506;24.938;2023-07-30T10:28:26;4.50;;;2.90;;
8293;SDS011;4185;41.506;24.938;2023-07-30T10:30:58;3.33;;;3.00;;
8293;SDS011;4185;41.506;24.938;2023-07-30T10:36:11;3.63;;;3.05;;
8293;SDS011;4185;41.506;24.938;2023-07-30T10:38:38;3.22;;;3.03;;
8293;SDS011;4185;41.506;24.938;2023-07-30T10:41:07;3.65;;;3.35;;
8293;SDS011;4185;41.506;24.938;2023-07-30T10:43:36;3.45;;;3.15;;
8293;SDS011;4185;41.506;24.938;2023-07-30T10:46:05;3.40;;;3.20;;
8293;SDS011;4185;41.506;24.938;2023-07-30T10:48:32;4.70;;;3.22;;
8293;SDS011;4185;41.506;24.938;2023-07-30T10:51:00;3.97;;;3.58;;
8293;SDS011;4185;41.506;24.938;2023-07-30T10:53:28;3.50;;;2.80;;
8293;SDS011;4185;41.506;24.938;2023-07-30T10:55:57;3.65;;;3.22;;
8293;SDS011;4185;41.506;24.938;2023-07-30T10:58:26;5.25;;;4.72;;
8293;SDS011;4185;41.506;24.938;2023-07-30T11:00:53;4.05;;;3.65;;
8293;SDS011;4185;41.506;24.938;2023-07-30T11:03:22;3.83;;;3.10;;
8293;SDS011;4185;41.506;24.938;2023-07-30T11:05:51;3.47;;;3.03;;
8293;SDS011;4185;41.506;24.938;2023-07-30T11:08:17;4.20;;;2.90;;
8293;SDS011;4185;41.506;24.938;2023-07-30T11:10:45;3.90;;;3.17;;
8293;SDS011;4185;41.506;24.938;2023-07-30T11:13:13;4.55;;;2.92;;
8293;SDS011;4185;41.506;24.938;2023-07-30T11:15:40;3.33;;;3.03;;
8293;SDS011;4185;41.506;24.938;2023-07-30T11:18:08;3.40;;;3.10;;
8293;SDS011;4185;41.506;24.938;2023-07-30T11:20:36;3.38;;;2.88;;
8293;SDS011;4185;41.506;24.938;2023-07-30T11:23:16;4.15;;;3.22;;
8293;SDS011;4185;41.506;24.938;2023-07-30T11:25:45;3.13;;;2.88;;
8293;SDS011;4185;41.506;24.938;2023-07-30T11:28:13;3.58;;;3.13;;
8293;SDS011;4185;41.506;24.938;2023-07-30T11:30:40;4.22;;;3.13;;
8293;SDS011;4185;41.506;24.938;2023-07-30T11:33:07;3.58;;;3.20;;
8293;SDS011;4185;41.506;24.938;2023-07-30T11:35:33;3.42;;;3.03;;
8293;SDS011;4185;41.506;24.938;2023-07-30T11:38:02;4.00;;;3.42;;
8293;SDS011;4185;41.506;24.938;2023-07-30T11:40:29;3.30;;;3.00;;
8293;SDS011;4185;41.506;24.938;2023-07-30T11:42:56;5.45;;;3.20;;
8293;SDS011;4185;41.506;24.938;2023-07-30T11:45:23;3.00;;;2.72;;
8293;SDS011;4185;41.506;24.938;2023-07-30T11:47:51;3.40;;;3.10;;
8293;SDS011;4185;41.506;24.938;2023-07-30T11:50:18;3.47;;;3.17;;
8293;SDS011;4185;41.506;24.938;2023-07-30T11:52:52;3.47;;;3.17;;
8293;SDS011;4185;41.506;24.938;2023-07-30T11:55:21;4.07;;;3.20;;
8293;SDS011;4185;41.506;24.938;2023-07-30T11:57:49;3.95;;;3.20;;
8293;SDS011;4185;41.506;24.938;2023-07-30T12:00:16;4.18;;;3.25;;
8293;SDS011;4185;41.506;24.938;2023-07-30T12:02:47;3.90;;;3.60;;
8293;SDS011;4185;41.506;24.938;2023-07-30T12:05:13;3.60;;;3.25;;
8293;SDS011;4185;41.506;24.938;2023-07-30T12:07:43;3.72;;;3.42;;
8293;SDS011;4185;41.506;24.938;2023-07-30T12:10:13;3.80;;;3.50;;
8293;SDS011;4185;41.506;24.938;2023-07-30T12:12:45;3.75;;;3.45;;
8293;SDS011;4185;41.506;24.938;2023-07-30T12:15:12;4.43;;;3.53;;
8293;SDS011;4185;41.506;24.938;2023-07-30T12:17:39;4.43;;;3.65;;
8293;SDS011;4185;41.506;24.938;2023-07-30T12:20:06;5.78;;;3.83;;
8293;SDS011;4185;41.506;24.938;2023-07-30T12:22:33;3.58;;;3.25;;
8293;SDS011;4185;41.506;24.938;2023-07-30T12:25:01;4.13;;;3.60;;
8293;SDS011;4185;41.506;24.938;2023-07-30T12:27:29;3.55;;;3.25;;
8293;SDS011;4185;41.506;24.938;2023-07-30T12:29:57;3.92;;;3.25;;
8293;SDS011;4185;41.506;24.938;2023-07-30T12:32:24;3.63;;;3.00;;
8293;SDS011;4185;41.506;24.938;2023-07-30T12:34:53;3.47;;;3.17;;
8293;SDS011;4185;41.506;24.938;2023-07-30T12:37:20;5.93;;;3.28;;
8293;SDS011;4185;41.506;24.938;2023-07-30T12:39:46;5.60;;;3.30;;
8293;SDS011;4185;41.506;24.938;2023-07-30T12:42:13;3.92;;;3.63;;
8293;SDS011;4185;41.506;24.938;2023-07-30T12:44:40;4.13;;;3.13;;
8293;SDS011;4185;41.506;24.938;2023-07-30T12:47:08;3.92;;;3.45;;
8293;SDS011;4185;41.506;24.938;2023-07-30T12:49:35;3.70;;;3.40;;
8293;SDS011;4185;41.506;24.938;2023-07-30T12:52:02;3.10;;;2.90;;
8293;SDS011;4185;41.506;24.938;2023-07-30T12:54:29;4.05;;;3.50;;
8293;SDS011;4185;41.506;24.938;2023-07-30T12:56:55;3.80;;;3.50;;
8293;SDS011;4185;41.506;24.938;2023-07-30T12:59:22;3.97;;;3.65;;
8293;SDS011;4185;41.506;24.938;2023-07-30T13:01:49;3.72;;;3.42;;
8293;SDS011;4185;41.506;24.938;2023-07-30T13:04:17;5.10;;;4.70;;
8293;SDS011;4185;41.506;24.938;2023-07-30T13:06:44;4.82;;;4.00;;
8293;SDS011;4185;41.506;24.938;2023-07-30T13:09:11;4.30;;;3.90;;
8293;SDS011;4185;41.506;24.938;2023-07-30T13:11:37;3.72;;;3.42;;
8293;SDS011;4185;41.506;24.938;2023-07-30T13:14:04;5.78;;;3.72;;
8293;SDS011;4185;41.506;24.938;2023-07-30T13:16:31;4.45;;;4.05;;
8293;SDS011;4185;41.506;24.938;2023-07-30T13:18:58;3.92;;;3.63;;
8293;SDS011;4185;41.506;24.938;2023-07-30T13:21:26;4.10;;;3.80;;
8293;SDS011;4185;41.506;24.938;2023-07-30T13:23:53;4.10;;;3.70;;
8293;SDS011;4185;41.506;24.938;2023-07-30T13:26:19;3.72;;;3.42;;
8293;SDS011;4185;41.506;24.938;2023-07-30T13:28:46;4.30;;;3.40;;
8293;SDS011;4185;41.506;24.938;2023-07-30T13:31:13;3.38;;;3.10;;
8293;SDS011;4185;41.506;24.938;2023-07-30T13:33:40;4.20;;;3.35;;
8293;SDS011;4185;41.506;24.938;2023-07-30T13:36:07;3.22;;;2.92;;
8293;SDS011;4185;41.506;24.938;2023-07-30T13:38:35;4.20;;;3.80;;
8293;SDS011;4185;41.506;24.938;2023-07-30T13:41:03;6.00;;;3.97;;
8293;SDS011;4185;41.506;24.938;2023-07-30T13:43:30;4.13;;;3.83;;
8293;SDS011;4185;41.506;24.938;2023-07-30T13:45:57;3.80;;;3.50;;
8293;SDS011;4185;41.506;24.938;2023-07-30T13:48:24;3.63;;;3.33;;
8293;SDS011;4185;41.506;24.938;2023-07-30T13:50:51;4.82;;;3.60;;
8293;SDS011;4185;41.506;24.938;2023-07-30T13:53:18;3.70;;;3.40;;
8293;SDS011;4185;41.506;24.938;2023-07-30T13:55:47;3.80;;;3.50;;
8293;SDS011;4185;41.506;24.938;2023-07-30T13:58:14;3.92;;;3.63;;
8293;SDS011;4185;41.506;24.938;2023-07-30T14:00:41;4.07;;;3.67;;
8293;SDS011;4185;41.506;24.938;2023-07-30T14:03:08;4.13;;;3.83;;
8293;SDS011;4185;41.506;24.938;2023-07-30T14:05:36;3.97;;;3.60;;
8293;SDS011;4185;41.506;24.938;2023-07-30T14:08:03;3.70;;;3.40;;
8293;SDS011;4185;41.506;24.938;2023-07-30T14:10:30;3.88;;;3.58;;
8293;SDS011;4185;41.506;24.938;2023-07-30T14:12:58;3.70;;;3.40;;
8293;SDS011;4185;41.506;24.938;2023-07-30T14:15:25;4.72;;;3.33;;
8293;SDS011;4185;41.506;24.938;2023-07-30T14:17:52;4.03;;;3.70;;
8293;SDS011;4185;41.506;24.938;2023-07-30T14:20:20;4.88;;;3.80;;
8293;SDS011;4185;41.506;24.938;2023-07-30T14:22:46;3.88;;;3.58;;
8293;SDS011;4185;41.506;24.938;2023-07-30T14:25:14;4.10;;;3.70;;
8293;SDS011;4185;41.506;24.938;2023-07-30T14:27:41;3.90;;;3.50;;
8293;SDS011;4185;41.506;24.938;2023-07-30T14:30:09;4.18;;;3.78;;
8293;SDS011;4185;41.506;24.938;2023-07-30T14:32:37;4.28;;;3.97;;
8293;SDS011;4185;41.506;24.938;2023-07-30T14:35:04;6.50;;;4.05;;
8293;SDS011;4185;41.506;24.938;2023-07-30T14:37:31;4.40;;;4.00;;
8293;SDS011;4185;41.506;24.938;2023-07-30T14:39:58;5.32;;;3.80;;
8293;SDS011;4185;41.506;24.938;2023-07-30T14:42:25;4.03;;;3.72;;
8293;SDS011;4185;41.506;24.938;2023-07-30T14:44:51;3.70;;;3.40;;
8293;SDS011;4185;41.506;24.938;2023-07-30T14:47:19;4.15;;;3.80;;
8293;SDS011;4185;41.506;24.938;2023-07-30T14:49:47;4.10;;;3.80;;
8293;SDS011;4185;41.506;24.938;2023-07-30T14:52:16;5.15;;;4.07;;
8293;SDS011;4185;41.506;24.938;2023-07-30T14:54:43;4.03;;;3.72;;
8293;SDS011;4185;41.506;24.938;2023-07-30T14:57:10;4.45;;;3.83;;
8293;SDS011;4185;41.506;24.938;2023-07-30T14:59:37;4.22;;;3.83;;
8293;SDS011;4185;41.506;24.938;2023-07-30T15:02:04;4.43;;;4.03;;
8293;SDS011;4185;41.506;24.938;2023-07-30T15:04:33;4.03;;;3.63;;